Time;durP1;ratioP1;P1;durP2;ratioP2;P2;SDS_P1;SDS_P2;PMS_P1;PMS_P2;Temp;Humidity;BMP_temperature;BMP_pressure;BME280_temperature;BME280_humidity;BME280_pressure;Samples;Min_cycle;Max_cycle;Signal;HPM_P1;HPM_P2
2023/04/24 00:02:03;;;;;;;;;;;20.30;44.50;;;;;;5065003;28;19924;-61
2023/04/24 00:04:31;;;;;;;;;;;20.30;44.50;;;;;;5060185;28;19921;-61
2023/04/24 00:06:59;;;;;;;;;;;20.30;44.50;;;;;;5079256;28;19920;-61
2023/04/24 00:09:26;;;;;;;;;;;20.30;44.50;;;;;;5064815;28;19924;-61
2023/04/24 00:11:53;;;;;;;;;;;20.30;45.10;;;;;;5089812;28;19931;-61
2023/04/24 00:14:20;;;;;;;;;;;20.30;44.50;;;;;;5084667;28;19929;-61
2023/04/24 00:16:47;;;;;;;;;;;20.30;44.50;;;;;;5052520;28;19928;-61
2023/04/24 00:19:15;;;;;;;;;;;20.30;44.50;;;;;;5069518;28;19925;-60
2023/04/24 00:21:41;;;;;;;;;;;20.30;44.50;;;;;;5089877;28;19924;-61
2023/04/24 00:24:09;;;;;;;;;;;20.30;44.50;;;;;;5053681;28;19963;-61
2023/04/24 00:26:36;;;;;;;;;;;20.30;44.50;;;;;;5055094;28;19951;-59
2023/04/24 00:29:04;;;;;;;;;;;20.30;44.50;;;;;;5071353;28;19920;-60
2023/04/24 00:31:31;;;;;;;;;;;20.30;44.50;;;;;;5071335;28;19920;-59
2023/04/24 00:33:58;;;;;;;;;;;20.30;44.50;;;;;;5054377;28;19967;-60
2023/04/24 00:36:26;;;;;;;;;;;20.30;44.50;;;;;;5089031;28;19931;-60
2023/04/24 00:38:53;;;;;;;;;;;20.30;44.50;;;;;;5071510;28;20009;-60
2023/04/24 00:41:20;;;;;;;;;;;20.30;44.50;;;;;;5070978;28;19920;-61
2023/04/24 00:43:47;;;;;;;;;;;20.30;44.50;;;;;;5075714;28;19931;-60
2023/04/24 00:46:14;;;;;;;;;;;20.30;44.50;;;;;;5074232;28;19927;-60
2023/04/24 00:48:41;;;;;;;;;;;20.30;44.50;;;;;;5051175;28;19920;-60
2023/04/24 00:51:08;;;;;;;;;;;20.30;44.50;;;;;;5068958;28;19928;-60
2023/04/24 00:53:36;;;;;;;;;;;20.30;44.60;;;;;;5072355;28;19920;-60
2023/04/24 00:56:03;;;;;;;;;;;20.30;44.60;;;;;;5054325;28;19960;-60
2023/04/24 00:58:30;;;;;;;;;;;20.30;44.60;;;;;;5054479;28;20070;-60
2023/04/24 01:00:57;;;;;;;;;;;20.30;44.60;;;;;;5072830;28;19928;-61
2023/04/24 01:03:26;;;;;;;;;;;20.30;44.60;;;;;;5054264;28;19921;-60
2023/04/24 01:05:52;;;;;;;;;;;20.30;44.60;;;;;;5073656;28;19920;-60
2023/04/24 01:08:19;;;;;;;;;;;20.30;44.60;;;;;;5091007;28;19927;-60
2023/04/24 01:10:48;;;;;;;;;;;20.30;44.60;;;;;;5064437;28;19924;-60
2023/04/24 01:13:15;;;;;;;;;;;20.30;44.60;;;;;;5070811;28;19925;-60
2023/04/24 01:15:42;;;;;;;;;;;20.30;45.20;;;;;;5055322;28;19924;-60
2023/04/24 01:18:08;;;;;;;;;;;20.30;44.70;;;;;;5053940;28;19938;-60
2023/04/24 01:20:36;;;;;;;;;;;20.30;44.70;;;;;;5054319;28;19920;-60
2023/04/24 01:23:04;;;;;;;;;;;20.30;44.70;;;;;;5071008;28;20371;-60
2023/04/24 01:25:31;;;;;;;;;;;20.30;44.70;;;;;;5054177;28;19974;-60
2023/04/24 01:27:58;;;;;;;;;;;20.30;44.70;;;;;;5054315;28;19928;-60
2023/04/24 01:30:25;;;;;;;;;;;20.30;44.70;;;;;;5053902;28;19927;-60
2023/04/24 01:32:52;;;;;;;;;;;20.30;44.70;;;;;;5053209;28;19966;-60
2023/04/24 01:35:19;;;;;;;;;;;20.30;44.70;;;;;;5054015;28;19975;-60
2023/04/24 01:37:46;;;;;;;;;;;20.30;44.80;;;;;;5071015;28;19966;-59
2023/04/24 01:40:14;;;;;;;;;;;20.30;44.80;;;;;;5089899;28;19920;-60
2023/04/24 01:42:41;;;;;;;;;;;20.30;44.80;;;;;;5091787;28;19928;-60
2023/04/24 01:45:09;;;;;;;;;;;20.30;44.80;;;;;;5091315;28;19934;-60
2023/04/24 01:47:35;;;;;;;;;;;20.30;44.80;;;;;;5073565;28;19963;-60
2023/04/24 01:50:02;;;;;;;;;;;20.30;44.80;;;;;;5063563;28;19970;-60
2023/04/24 01:52:31;;;;;;;;;;;20.30;44.90;;;;;;5053880;28;19925;-60
2023/04/24 01:54:58;;;;;;;;;;;20.30;44.90;;;;;;5070219;28;19948;-61
2023/04/24 01:57:26;;;;;;;;;;;20.30;44.90;;;;;;5053100;28;19921;-60
2023/04/24 01:59:52;;;;;;;;;;;20.30;44.90;;;;;;5053756;28;19924;-60
2023/04/24 02:02:21;;;;;;;;;;;20.30;44.90;;;;;;5072899;28;19965;-60
2023/04/24 02:04:47;;;;;;;;;;;20.30;44.90;;;;;;5091510;28;20278;-60
2023/04/24 02:07:14;;;;;;;;;;;20.30;44.90;;;;;;5074200;28;19924;-60
2023/04/24 02:09:41;;;;;;;;;;;20.30;44.90;;;;;;5073483;28;19928;-60
2023/04/24 02:12:08;;;;;;;;;;;20.30;44.90;;;;;;5055474;28;19970;-59
2023/04/24 02:14:36;;;;;;;;;;;20.30;44.90;;;;;;5069984;28;19921;-60
2023/04/24 02:17:02;;;;;;;;;;;20.30;44.90;;;;;;5071014;28;19924;-60
2023/04/24 02:19:29;;;;;;;;;;;20.30;44.90;;;;;;5053080;28;19924;-60
2023/04/24 02:21:56;;;;;;;;;;;20.30;44.90;;;;;;5082492;28;19960;-60
2023/04/24 02:24:23;;;;;;;;;;;20.30;44.90;;;;;;5065114;28;19924;-60
2023/04/24 02:26:49;;;;;;;;;;;20.30;44.90;;;;;;5069653;28;19927;-59
2023/04/24 02:29:16;;;;;;;;;;;20.30;44.90;;;;;;5070804;28;19974;-60
2023/04/24 02:31:44;;;;;;;;;;;20.30;44.90;;;;;;5052910;28;19965;-59
2023/04/24 02:34:11;;;;;;;;;;;20.30;44.90;;;;;;5052764;28;19925;-60
2023/04/24 02:36:38;;;;;;;;;;;20.30;44.90;;;;;;5053103;28;19963;-60
2023/04/24 02:39:05;;;;;;;;;;;20.30;44.90;;;;;;5081041;28;19920;-60
2023/04/24 02:41:32;;;;;;;;;;;20.30;44.90;;;;;;5061698;28;19924;-60
2023/04/24 02:43:59;;;;;;;;;;;20.30;44.90;;;;;;5072858;28;19930;-59
2023/04/24 02:46:25;;;;;;;;;;;20.30;44.90;;;;;;5082364;28;19920;-60
2023/04/24 02:48:54;;;;;;;;;;;20.30;44.90;;;;;;5072314;28;19950;-60
2023/04/24 02:51:20;;;;;;;;;;;20.30;44.90;;;;;;5071959;28;19924;-60
2023/04/24 02:53:47;;;;;;;;;;;20.30;44.90;;;;;;5090647;28;19973;-60
2023/04/24 02:56:14;;;;;;;;;;;20.30;44.90;;;;;;5078122;28;19920;-60
2023/04/24 02:58:42;;;;;;;;;;;20.30;44.90;;;;;;5090872;28;19923;-60
2023/04/24 03:01:09;;;;;;;;;;;20.30;44.90;;;;;;5070185;28;19971;-60
2023/04/24 03:03:36;;;;;;;;;;;20.30;44.90;;;;;;5088840;28;19924;-60
2023/04/24 03:06:05;;;;;;;;;;;20.30;44.90;;;;;;5089055;28;19924;-60
2023/04/24 03:08:32;;;;;;;;;;;20.30;44.90;;;;;;5072080;28;20031;-60
2023/04/24 03:10:59;;;;;;;;;;;20.30;44.90;;;;;;5090213;28;19927;-60
2023/04/24 03:13:26;;;;;;;;;;;20.30;44.90;;;;;;5076011;28;20049;-60
2023/04/24 03:15:53;;;;;;;;;;;20.30;44.90;;;;;;5068583;28;19921;-60
2023/04/24 03:18:20;;;;;;;;;;;20.30;44.90;;;;;;5051514;28;19928;-60
2023/04/24 03:20:47;;;;;;;;;;;20.30;44.90;;;;;;5070164;28;19965;-60
2023/04/24 03:23:15;;;;;;;;;;;20.30;44.90;;;;;;5052034;28;19921;-60
2023/04/24 03:25:42;;;;;;;;;;;20.30;44.80;;;;;;5052101;28;19925;-60
2023/04/24 03:28:09;;;;;;;;;;;20.30;44.80;;;;;;5069807;28;19924;-60
2023/04/24 03:30:37;;;;;;;;;;;20.30;44.80;;;;;;5072182;28;19920;-60
2023/04/24 03:33:04;;;;;;;;;;;20.30;44.80;;;;;;5089832;28;19967;-61
2023/04/24 03:35:31;;;;;;;;;;;20.30;44.80;;;;;;5072050;28;20310;-60
2023/04/24 03:37:58;;;;;;;;;;;20.30;44.80;;;;;;5069880;28;19973;-60
2023/04/24 03:40:26;;;;;;;;;;;20.30;44.70;;;;;;5051728;28;20399;-60
2023/04/24 03:42:53;;;;;;;;;;;20.30;44.70;;;;;;5084693;28;19920;-60
2023/04/24 03:45:21;;;;;;;;;;;20.30;44.60;;;;;;5069714;28;19920;-60
2023/04/24 03:47:47;;;;;;;;;;;20.20;44.60;;;;;;5086538;28;20023;-60
2023/04/24 03:50:14;;;;;;;;;;;20.20;44.50;;;;;;5089681;28;19920;-60
2023/04/24 03:52:41;;;;;;;;;;;20.20;44.50;;;;;;5089814;28;19966;-60
2023/04/24 03:55:08;;;;;;;;;;;20.20;44.50;;;;;;5089777;28;19924;-60
2023/04/24 03:57:39;;;;;;;;;;;20.20;44.40;;;;;;5071837;28;20359;-60
2023/04/24 04:00:07;;;;;;;;;;;20.20;44.40;;;;;;5077444;28;19920;-60
2023/04/24 04:02:33;;;;;;;;;;;20.20;44.30;;;;;;5051222;28;19978;-60
2023/04/24 04:05:01;;;;;;;;;;;20.20;44.30;;;;;;5070061;28;19921;-60
2023/04/24 04:07:29;;;;;;;;;;;20.20;44.30;;;;;;5065952;28;19938;-60
2023/04/24 04:09:56;;;;;;;;;;;20.20;44.20;;;;;;5071934;28;19927;-60
2023/04/24 04:12:23;;;;;;;;;;;20.20;44.20;;;;;;5076065;28;19924;-59
2023/04/24 04:14:51;;;;;;;;;;;20.20;44.10;;;;;;5051473;28;19994;-60
2023/04/24 04:17:17;;;;;;;;;;;20.20;44.10;;;;;;5068256;28;19920;-60
2023/04/24 04:19:44;;;;;;;;;;;20.20;44.10;;;;;;5070004;28;19924;-60
2023/04/24 04:22:13;;;;;;;;;;;20.20;44.10;;;;;;5051363;28;19929;-59
2023/04/24 04:24:40;;;;;;;;;;;20.20;44.10;;;;;;5051095;28;20355;-60
2023/04/24 04:27:08;;;;;;;;;;;20.10;43.90;;;;;;5075702;28;20316;-60
2023/04/24 04:29:34;;;;;;;;;;;20.20;44.00;;;;;;5073036;28;19943;-60
2023/04/24 04:32:02;;;;;;;;;;;20.20;44.00;;;;;;5060409;28;19925;-60
2023/04/24 04:34:31;;;;;;;;;;;20.20;43.90;;;;;;5055210;28;20412;-59
2023/04/24 04:36:59;;;;;;;;;;;20.20;43.90;;;;;;5063955;28;19946;-59
2023/04/24 04:39:26;;;;;;;;;;;20.20;44.40;;;;;;5092004;28;19927;-60
2023/04/24 04:41:52;;;;;;;;;;;20.20;43.90;;;;;;5093183;28;19920;-60
2023/04/24 04:44:19;;;;;;;;;;;20.20;43.80;;;;;;5072501;28;19920;-60
2023/04/24 04:46:47;;;;;;;;;;;20.20;43.80;;;;;;5076827;28;19920;-59
2023/04/24 04:49:16;;;;;;;;;;;20.10;43.70;;;;;;5071073;28;19987;-59
2023/04/24 04:51:43;;;;;;;;;;;20.10;43.70;;;;;;5066042;28;20011;-60
2023/04/24 04:54:09;;;;;;;;;;;20.20;43.80;;;;;;5054656;28;20021;-60
2023/04/24 04:56:36;;;;;;;;;;;20.10;43.70;;;;;;5054880;28;19920;-60
2023/04/24 04:59:03;;;;;;;;;;;20.10;43.70;;;;;;5086555;28;19931;-60
2023/04/24 05:01:30;;;;;;;;;;;20.20;43.80;;;;;;5068862;28;19920;-59
2023/04/24 05:03:57;;;;;;;;;;;20.20;43.70;;;;;;5054707;28;19924;-60
2023/04/24 05:06:25;;;;;;;;;;;20.10;43.60;;;;;;5066455;28;20280;-59
2023/04/24 05:08:56;;;;;;;;;;;20.10;43.60;;;;;;5071257;28;20020;-60
2023/04/24 05:11:23;;;;;;;;;;;20.10;43.60;;;;;;5072561;28;20358;-60
2023/04/24 05:13:50;;;;;;;;;;;20.20;43.70;;;;;;5078935;28;19929;-60
2023/04/24 05:16:17;;;;;;;;;;;20.10;43.60;;;;;;5062609;28;19933;-59
2023/04/24 05:18:44;;;;;;;;;;;20.10;43.60;;;;;;5081119;28;19920;-60
2023/04/24 05:21:10;;;;;;;;;;;20.10;43.60;;;;;;5081935;28;19924;-60
2023/04/24 05:23:38;;;;;;;;;;;20.10;43.60;;;;;;5082857;28;19924;-60
2023/04/24 05:26:05;;;;;;;;;;;20.10;43.60;;;;;;5071991;28;19927;-59
2023/04/24 05:28:32;;;;;;;;;;;20.20;43.70;;;;;;5069753;28;19921;-60
2023/04/24 05:30:59;;;;;;;;;;;20.10;43.60;;;;;;5082443;28;19924;-60
2023/04/24 05:33:26;;;;;;;;;;;20.10;43.60;;;;;;5081534;28;19925;-60
2023/04/24 05:35:52;;;;;;;;;;;20.20;43.70;;;;;;5064871;28;19928;-59
2023/04/24 05:38:19;;;;;;;;;;;20.10;43.50;;;;;;5063100;28;19986;-60
2023/04/24 05:40:47;;;;;;;;;;;20.20;43.60;;;;;;5061444;28;19971;-63
2023/04/24 05:43:14;;;;;;;;;;;20.10;43.50;;;;;;5060008;28;19977;-60
2023/04/24 05:45:41;;;;;;;;;;;20.10;43.40;;;;;;5062084;28;19920;-60
2023/04/24 05:48:08;;;;;;;;;;;20.10;43.30;;;;;;5079493;28;19920;-60
2023/04/24 05:50:35;;;;;;;;;;;20.10;43.20;;;;;;5064600;28;19933;-60
2023/04/24 05:53:03;;;;;;;;;;;20.10;43.20;;;;;;5080086;28;19924;-60
2023/04/24 05:55:32;;;;;;;;;;;20.10;43.10;;;;;;5079846;28;20191;-60
2023/04/24 05:58:00;;;;;;;;;;;20.10;43.10;;;;;;5062215;28;19931;-60
2023/04/24 06:00:28;;;;;;;;;;;20.10;43.10;;;;;;5058290;28;19920;-60
2023/04/24 06:02:55;;;;;;;;;;;20.10;43.00;;;;;;5075635;28;20062;-61
2023/04/24 06:05:22;;;;;;;;;;;20.10;43.00;;;;;;5061144;28;19920;-61
2023/04/24 06:07:49;;;;;;;;;;;20.10;42.90;;;;;;5061688;28;19921;-60
2023/04/24 06:10:15;;;;;;;;;;;20.10;42.90;;;;;;5062806;28;20015;-62
2023/04/24 06:12:42;;;;;;;;;;;20.10;42.90;;;;;;5061730;28;19970;-61
2023/04/24 06:15:11;;;;;;;;;;;20.10;42.90;;;;;;5085394;28;19941;-61
2023/04/24 06:17:38;;;;;;;;;;;20.10;42.80;;;;;;5060666;28;20380;-61
2023/04/24 06:20:06;;;;;;;;;;;20.10;42.80;;;;;;5062136;28;19920;-61
2023/04/24 06:22:32;;;;;;;;;;;20.10;42.80;;;;;;5062636;28;19920;-61
2023/04/24 06:25:00;;;;;;;;;;;20.10;42.70;;;;;;5063448;28;19924;-61
2023/04/24 06:27:27;;;;;;;;;;;20.10;42.70;;;;;;5081996;28;19927;-60
2023/04/24 06:29:55;;;;;;;;;;;20.10;42.80;;;;;;5072296;28;20006;-59
2023/04/24 06:32:23;;;;;;;;;;;20.10;42.80;;;;;;5065125;28;19962;-59
2023/04/24 06:34:50;;;;;;;;;;;20.10;42.70;;;;;;5083276;28;19938;-59
2023/04/24 06:37:17;;;;;;;;;;;20.10;42.50;;;;;;5064621;28;19924;-59
2023/04/24 06:39:44;;;;;;;;;;;20.10;42.50;;;;;;5063494;28;19920;-60
2023/04/24 06:42:11;;;;;;;;;;;20.00;42.30;;;;;;5088878;28;19935;-59
2023/04/24 06:44:40;;;;;;;;;;;20.00;42.90;;;;;;5058747;28;19928;-61
2023/04/24 06:47:07;;;;;;;;;;;20.00;42.40;;;;;;5063098;28;20363;-59
2023/04/24 06:49:35;;;;;;;;;;;20.00;42.50;;;;;;5084443;28;19932;-59
2023/04/24 06:52:02;;;;;;;;;;;20.00;42.50;;;;;;5067057;28;19944;-59
2023/04/24 06:54:29;;;;;;;;;;;20.00;42.50;;;;;;5056623;28;19975;-58
2023/04/24 06:56:57;;;;;;;;;;;20.00;42.60;;;;;;5060017;28;20397;-59
2023/04/24 06:59:24;;;;;;;;;;;20.00;42.60;;;;;;5072178;28;20558;-59
2023/04/24 07:01:50;;;;;;;;;;;20.00;42.60;;;;;;5051978;28;19932;-58
2023/04/24 07:04:17;;;;;;;;;;;20.00;42.60;;;;;;5058796;28;20003;-59
2023/04/24 07:06:45;;;;;;;;;;;20.00;42.60;;;;;;5055622;28;20028;-59
2023/04/24 07:09:13;;;;;;;;;;;20.00;42.60;;;;;;5054975;28;20361;-58
2023/04/24 07:11:40;;;;;;;;;;;20.10;42.70;;;;;;5056637;28;19985;-59
2023/04/24 07:14:07;;;;;;;;;;;20.10;42.70;;;;;;5075110;28;20007;-58
2023/04/24 07:16:34;;;;;;;;;;;20.10;42.70;;;;;;5062130;28;20511;-59
2023/04/24 07:19:01;;;;;;;;;;;20.10;42.70;;;;;;5069546;28;19920;-59
2023/04/24 07:21:28;;;;;;;;;;;20.10;42.70;;;;;;5062992;28;20027;-59
2023/04/24 07:23:56;;;;;;;;;;;20.10;42.70;;;;;;5083198;28;20285;-59
2023/04/24 07:26:22;;;;;;;;;;;20.10;42.70;;;;;;5066339;28;19923;-59
2023/04/24 07:28:49;;;;;;;;;;;20.10;42.70;;;;;;5067811;28;20420;-58
2023/04/24 07:31:16;;;;;;;;;;;20.10;43.20;;;;;;5080942;28;19920;-58
2023/04/24 07:33:43;;;;;;;;;;;20.10;42.70;;;;;;5068312;28;20048;-59
2023/04/24 07:36:15;;;;;;;;;;;20.10;42.60;;;;;;5090496;28;19966;-58
2023/04/24 07:38:41;;;;;;;;;;;20.10;42.60;;;;;;5081574;28;19970;-58
2023/04/24 07:41:13;;;;;;;;;;;20.10;42.50;;;;;;5080875;28;19959;-59
2023/04/24 07:43:40;;;;;;;;;;;20.10;42.50;;;;;;5077594;28;20024;-58
2023/04/24 07:46:06;;;;;;;;;;;20.10;42.50;;;;;;5075005;28;19955;-58
2023/04/24 07:48:33;;;;;;;;;;;20.10;42.50;;;;;;5059840;28;19977;-58
2023/04/24 07:51:00;;;;;;;;;;;20.10;42.40;;;;;;5053292;28;19928;-59
2023/04/24 07:53:27;;;;;;;;;;;20.10;42.40;;;;;;5084483;28;20302;-59
2023/04/24 07:55:54;;;;;;;;;;;20.10;42.30;;;;;;5065267;28;19924;-58
2023/04/24 07:58:22;;;;;;;;;;;20.10;42.30;;;;;;5069452;28;19924;-59
2023/04/24 08:00:49;;;;;;;;;;;20.10;42.40;;;;;;5071332;28;19920;-59
2023/04/24 08:03:19;;;;;;;;;;;20.10;42.40;;;;;;5084304;28;19920;-59
2023/04/24 08:05:45;;;;;;;;;;;20.20;42.50;;;;;;5074238;28;20010;-59
2023/04/24 08:08:12;;;;;;;;;;;20.20;42.50;;;;;;5073175;28;19965;-58
2023/04/24 08:10:39;;;;;;;;;;;20.20;42.50;;;;;;5072362;28;19928;-59
2023/04/24 08:13:06;;;;;;;;;;;20.20;42.50;;;;;;5069854;28;20251;-60
2023/04/24 08:15:34;;;;;;;;;;;20.20;42.50;;;;;;5066499;28;19927;-58
2023/04/24 08:18:01;;;;;;;;;;;20.20;42.50;;;;;;5073199;28;19920;-58
2023/04/24 08:20:28;;;;;;;;;;;20.20;42.50;;;;;;5073669;28;19924;-58
2023/04/24 08:22:56;;;;;;;;;;;20.20;42.50;;;;;;5082036;28;19966;-59
2023/04/24 08:25:24;;;;;;;;;;;20.20;42.40;;;;;;5068265;28;19928;-58
2023/04/24 08:27:51;;;;;;;;;;;20.20;42.40;;;;;;5073642;28;20438;-58
2023/04/24 08:30:17;;;;;;;;;;;20.20;42.40;;;;;;5086851;28;20004;-58
2023/04/24 08:32:46;;;;;;;;;;;20.20;42.90;;;;;;5090702;28;20362;-59
2023/04/24 08:35:12;;;;;;;;;;;20.20;42.30;;;;;;5088034;28;19927;-59
2023/04/24 08:37:39;;;;;;;;;;;20.20;42.30;;;;;;5069968;28;20361;-59
2023/04/24 08:40:07;;;;;;;;;;;20.20;42.30;;;;;;5071497;28;19920;-58
2023/04/24 08:42:34;;;;;;;;;;;20.20;42.30;;;;;;5087941;28;19982;-59
2023/04/24 08:45:02;;;;;;;;;;;20.20;42.30;;;;;;5088286;28;19920;-58
2023/04/24 08:47:29;;;;;;;;;;;20.20;42.20;;;;;;5089424;28;19995;-58
2023/04/24 08:49:58;;;;;;;;;;;20.20;42.20;;;;;;5070498;28;19924;-58
2023/04/24 08:52:25;;;;;;;;;;;20.20;42.20;;;;;;5091537;28;19939;-58
2023/04/24 08:54:52;;;;;;;;;;;20.20;42.90;;;;;;5073367;28;19931;-58
2023/04/24 08:57:19;;;;;;;;;;;20.20;42.20;;;;;;5066710;28;19942;-58
2023/04/24 08:59:46;;;;;;;;;;;20.20;42.20;;;;;;5086790;28;19965;-58
2023/04/24 09:02:12;;;;;;;;;;;20.30;42.30;;;;;;5072666;28;19924;-59
2023/04/24 09:04:39;;;;;;;;;;;20.20;42.20;;;;;;5071983;28;20373;-59
2023/04/24 09:07:08;;;;;;;;;;;20.20;42.20;;;;;;5071835;28;19920;-58
2023/04/24 09:09:34;;;;;;;;;;;20.30;42.30;;;;;;5084410;28;19924;-58
2023/04/24 09:12:01;;;;;;;;;;;20.30;42.30;;;;;;5075836;28;20282;-58
2023/04/24 09:14:31;;;;;;;;;;;20.30;42.30;;;;;;5066964;28;19931;-58
2023/04/24 09:16:57;;;;;;;;;;;20.30;42.30;;;;;;5064644;28;19958;-59
2023/04/24 09:19:24;;;;;;;;;;;20.30;42.20;;;;;;5066939;28;19920;-59
2023/04/24 09:21:51;;;;;;;;;;;20.30;42.20;;;;;;5069758;28;19920;-58
2023/04/24 09:24:22;;;;;;;;;;;20.30;42.20;;;;;;5089030;28;19973;-59
2023/04/24 09:26:49;;;;;;;;;;;20.30;42.20;;;;;;5085984;28;19943;-58
2023/04/24 09:29:16;;;;;;;;;;;20.30;42.10;;;;;;5070154;28;20372;-58
2023/04/24 09:31:43;;;;;;;;;;;20.30;42.10;;;;;;5070963;28;20014;-58
2023/04/24 09:34:09;;;;;;;;;;;20.30;42.10;;;;;;5090025;28;19946;-59
2023/04/24 09:36:40;;;;;;;;;;;20.30;42.10;;;;;;5070433;28;19924;-59
2023/04/24 09:39:10;;;;;;;;;;;20.30;42.10;;;;;;5082154;28;19995;-59
2023/04/24 09:41:44;;;;;;;;;;;20.30;42.10;;;;;;5064564;28;19939;-60
2023/04/24 09:44:14;;;;;;;;;;;20.30;42.10;;;;;;5065021;28;19989;-59
2023/04/24 09:46:41;;;;;;;;;;;20.30;42.00;;;;;;5067330;28;20423;-58
2023/04/24 09:49:09;;;;;;;;;;;20.30;42.00;;;;;;5070006;28;19939;-57
2023/04/24 09:51:37;;;;;;;;;;;20.30;42.00;;;;;;5088009;28;20378;-60
2023/04/24 09:54:04;;;;;;;;;;;20.30;42.00;;;;;;5074190;28;20064;-60
2023/04/24 09:56:33;;;;;;;;;;;20.30;42.00;;;;;;5086338;28;19930;-59
2023/04/24 09:59:07;;;;;;;;;;;20.30;42.00;;;;;;5081322;28;19924;-59
2023/04/24 10:01:34;;;;;;;;;;;20.30;42.00;;;;;;5066800;28;20046;-60
2023/04/24 10:04:01;;;;;;;;;;;20.30;42.00;;;;;;5072797;28;19989;-59
2023/04/24 10:06:31;;;;;;;;;;;20.30;42.00;;;;;;5064905;28;20046;-59
2023/04/24 10:08:58;;;;;;;;;;;20.30;42.00;;;;;;5066479;28;19962;-59
2023/04/24 10:11:25;;;;;;;;;;;20.30;41.90;;;;;;5084809;28;19924;-59
2023/04/24 10:13:52;;;;;;;;;;;20.30;41.90;;;;;;5068552;28;20332;-60
2023/04/24 10:16:21;;;;;;;;;;;20.30;41.90;;;;;;5069026;28;19928;-59
2023/04/24 10:18:48;;;;;;;;;;;20.30;41.90;;;;;;5062941;28;19970;-60
2023/04/24 10:21:14;;;;;;;;;;;20.30;41.90;;;;;;5082909;28;20413;-58
2023/04/24 10:23:41;;;;;;;;;;;20.30;41.90;;;;;;5080997;28;19921;-58
2023/04/24 10:26:08;;;;;;;;;;;20.30;41.90;;;;;;5069688;28;19923;-58
2023/04/24 10:28:35;;;;;;;;;;;20.30;41.90;;;;;;5058253;28;19967;-58
2023/04/24 10:31:02;;;;;;;;;;;20.30;42.00;;;;;;5067729;28;19961;-58
2023/04/24 10:33:30;;;;;;;;;;;20.30;42.00;;;;;;5081706;28;19964;-57
2023/04/24 10:35:58;;;;;;;;;;;20.30;42.00;;;;;;5065792;28;19926;-58
2023/04/24 10:38:25;;;;;;;;;;;20.30;42.10;;;;;;5087518;28;19967;-58
2023/04/24 10:40:52;;;;;;;;;;;20.30;42.00;;;;;;5080582;28;19933;-58
2023/04/24 10:43:19;;;;;;;;;;;20.30;41.90;;;;;;5081652;28;19935;-58
2023/04/24 10:46:00;;;;;;;;;;;20.30;41.90;;;;;;5067021;28;19959;-58
2023/04/24 10:48:27;;;;;;;;;;;20.20;41.80;;;;;;5081779;28;19920;-58
2023/04/24 10:50:55;;;;;;;;;;;20.20;41.70;;;;;;5082962;28;19974;-58
2023/04/24 10:53:23;;;;;;;;;;;20.20;41.70;;;;;;5062021;28;19924;-58
2023/04/24 10:55:50;;;;;;;;;;;20.20;41.70;;;;;;5065143;28;19924;-58
2023/04/24 10:58:17;;;;;;;;;;;20.20;41.70;;;;;;5064670;28;19924;-58
2023/04/24 11:00:44;;;;;;;;;;;20.20;41.70;;;;;;5059516;28;19963;-58
2023/04/24 11:03:24;;;;;;;;;;;20.20;41.70;;;;;;5079799;28;19928;-58
2023/04/24 11:05:51;;;;;;;;;;;20.20;41.60;;;;;;5080394;28;20019;-58
2023/04/24 11:08:23;;;;;;;;;;;20.20;41.60;;;;;;5063199;28;19924;-59
2023/04/24 11:10:55;;;;;;;;;;;20.20;41.60;;;;;;5062185;28;19973;-58
2023/04/24 11:13:22;;;;;;;;;;;20.20;41.60;;;;;;5061767;28;19928;-59
2023/04/24 11:15:54;;;;;;;;;;;20.20;41.60;;;;;;5062748;28;19920;-58
2023/04/24 11:18:21;;;;;;;;;;;20.20;41.60;;;;;;5064565;28;19932;-59
2023/04/24 11:20:48;;;;;;;;;;;20.20;41.60;;;;;;5062517;28;19920;-59
2023/04/24 11:23:15;;;;;;;;;;;20.20;41.60;;;;;;5060080;28;19925;-58
2023/04/24 11:25:46;;;;;;;;;;;20.20;41.60;;;;;;5063777;28;20406;-58
2023/04/24 11:28:15;;;;;;;;;;;20.20;41.60;;;;;;5077151;28;19947;-58
2023/04/24 11:30:42;;;;;;;;;;;20.20;41.60;;;;;;5062842;28;20019;-58
2023/04/24 11:33:09;;;;;;;;;;;20.20;41.70;;;;;;5076525;28;20207;-59
2023/04/24 11:35:37;;;;;;;;;;;20.20;41.70;;;;;;5065851;28;19924;-58
2023/04/24 11:38:05;;;;;;;;;;;20.30;41.80;;;;;;5068253;28;19948;-58
2023/04/24 11:40:31;;;;;;;;;;;20.30;41.70;;;;;;5062920;28;19920;-58
2023/04/24 11:43:00;;;;;;;;;;;20.30;41.80;;;;;;5065960;28;19924;-58
2023/04/24 11:45:28;;;;;;;;;;;20.30;41.80;;;;;;5066964;28;19920;-58
2023/04/24 11:47:55;;;;;;;;;;;20.30;41.80;;;;;;5083688;28;19959;-57
2023/04/24 11:50:23;;;;;;;;;;;20.30;41.80;;;;;;5082950;28;19937;-58
2023/04/24 11:52:50;;;;;;;;;;;20.30;41.80;;;;;;5068474;28;20282;-58
2023/04/24 11:55:27;;;;;;;;;;;20.30;41.80;;;;;;5068303;28;19977;-59
2023/04/24 11:57:56;;;;;;;;;;;20.30;41.80;;;;;;5069989;28;19924;-59
2023/04/24 12:00:24;;;;;;;;;;;20.30;41.70;;;;;;5086467;28;19924;-61
2023/04/24 12:02:52;;;;;;;;;;;20.30;41.70;;;;;;5068288;28;19950;-61
2023/04/24 12:05:20;;;;;;;;;;;20.30;41.70;;;;;;5065849;28;19932;-58
2023/04/24 12:07:47;;;;;;;;;;;20.30;41.70;;;;;;5063659;28;19921;-61
2023/04/24 12:10:14;;;;;;;;;;;20.30;41.70;;;;;;5061732;28;19924;-58
2023/04/24 12:12:41;;;;;;;;;;;20.30;41.70;;;;;;5065917;28;19920;-58
2023/04/24 12:15:08;;;;;;;;;;;20.30;41.60;;;;;;5079561;28;19931;-59
2023/04/24 12:17:36;;;;;;;;;;;20.30;41.60;;;;;;5076035;28;20324;-59
2023/04/24 12:20:03;;;;;;;;;;;20.30;41.60;;;;;;5078996;28;19933;-58
2023/04/24 12:22:44;;;;;;;;;;;20.30;41.60;;;;;;5079803;28;19932;-58
2023/04/24 12:25:11;;;;;;;;;;;20.30;41.50;;;;;;5080576;28;19926;-58
2023/04/24 12:27:38;;;;;;;;;;;20.30;41.50;;;;;;5075337;28;19986;-58
2023/04/24 12:30:05;;;;;;;;;;;20.30;41.50;;;;;;5079189;28;19978;-58
2023/04/24 12:32:32;;;;;;;;;;;20.30;41.50;;;;;;5081100;28;19950;-58
2023/04/24 12:35:05;;;;;;;;;;;20.30;41.40;;;;;;5073740;28;20393;-58
2023/04/24 12:37:33;;;;;;;;;;;20.30;41.40;;;;;;5082928;28;19927;-58
2023/04/24 12:40:00;;;;;;;;;;;20.30;41.50;;;;;;5079379;28;19931;-59
2023/04/24 12:42:27;;;;;;;;;;;20.30;41.40;;;;;;5059830;28;20023;-59
2023/04/24 12:44:56;;;;;;;;;;;20.30;41.30;;;;;;5065214;28;19924;-59
2023/04/24 12:47:23;;;;;;;;;;;20.30;41.30;;;;;;5063414;28;19974;-58
2023/04/24 12:49:52;;;;;;;;;;;20.30;41.30;;;;;;5065651;28;19927;-58
2023/04/24 12:52:21;;;;;;;;;;;20.30;41.20;;;;;;5065541;28;20066;-58
2023/04/24 12:54:48;;;;;;;;;;;20.30;41.20;;;;;;5083004;28;20294;-61
2023/04/24 12:57:15;;;;;;;;;;;20.30;41.20;;;;;;5075386;28;19924;-58
2023/04/24 12:59:42;;;;;;;;;;;20.30;41.20;;;;;;5086196;28;19928;-59
2023/04/24 13:02:09;;;;;;;;;;;20.30;41.10;;;;;;5046769;28;19932;-59
2023/04/24 13:04:36;;;;;;;;;;;20.30;41.20;;;;;;5082127;28;20089;-60
2023/04/24 13:07:03;;;;;;;;;;;20.30;41.10;;;;;;5084050;28;19920;-59
2023/04/24 13:09:31;;;;;;;;;;;20.30;41.10;;;;;;5086778;28;19989;-58
2023/04/24 13:11:58;;;;;;;;;;;20.30;41.00;;;;;;5068063;28;19920;-59
2023/04/24 13:14:25;;;;;;;;;;;20.30;41.00;;;;;;5080911;28;20015;-58
2023/04/24 13:16:52;;;;;;;;;;;20.30;41.00;;;;;;5065697;28;20028;-60
2023/04/24 13:19:19;;;;;;;;;;;20.30;41.00;;;;;;5080717;28;19927;-59
2023/04/24 13:21:47;;;;;;;;;;;20.30;41.00;;;;;;5087217;28;20092;-59
2023/04/24 13:24:15;;;;;;;;;;;20.30;41.00;;;;;;5084168;28;19936;-60
2023/04/24 13:26:43;;;;;;;;;;;20.30;41.00;;;;;;5081372;28;19960;-59
2023/04/24 13:29:10;;;;;;;;;;;20.30;41.00;;;;;;5062504;28;19974;-58
2023/04/24 13:31:37;;;;;;;;;;;20.30;41.00;;;;;;5071310;28;19931;-59
2023/04/24 13:34:04;;;;;;;;;;;20.30;41.00;;;;;;5076509;28;19932;-60
2023/04/24 13:36:31;;;;;;;;;;;20.30;41.00;;;;;;5070717;28;19973;-59
2023/04/24 13:38:58;;;;;;;;;;;20.30;40.90;;;;;;5086076;28;20015;-61
2023/04/24 13:41:25;;;;;;;;;;;20.30;40.90;;;;;;5084150;28;19924;-58
2023/04/24 13:43:53;;;;;;;;;;;20.30;40.90;;;;;;5071574;28;19932;-61
2023/04/24 13:46:19;;;;;;;;;;;20.30;40.90;;;;;;5078996;28;19985;-59
2023/04/24 13:48:46;;;;;;;;;;;20.30;40.90;;;;;;5089421;28;19985;-62
2023/04/24 13:51:13;;;;;;;;;;;20.30;40.90;;;;;;5066204;28;19920;-61
2023/04/24 13:53:40;;;;;;;;;;;20.30;40.90;;;;;;5085898;28;19920;-61
2023/04/24 13:56:07;;;;;;;;;;;20.30;40.90;;;;;;5067692;28;19928;-60
2023/04/24 13:58:34;;;;;;;;;;;20.30;40.90;;;;;;5065902;28;19924;-62
2023/04/24 14:01:03;;;;;;;;;;;20.30;40.90;;;;;;5050381;28;19924;-58
2023/04/24 14:03:29;;;;;;;;;;;20.30;40.90;;;;;;5064660;28;20454;-61
2023/04/24 14:05:57;;;;;;;;;;;20.30;40.90;;;;;;5084075;28;19931;-59
2023/04/24 14:08:24;;;;;;;;;;;20.30;40.90;;;;;;5058190;28;19963;-59
2023/04/24 14:10:51;;;;;;;;;;;20.30;40.90;;;;;;5068319;28;19920;-60
2023/04/24 14:13:18;;;;;;;;;;;20.30;40.90;;;;;;5082581;28;19925;-60
2023/04/24 14:15:45;;;;;;;;;;;20.30;40.90;;;;;;5060781;28;19927;-59
2023/04/24 14:18:13;;;;;;;;;;;20.30;40.90;;;;;;5082507;28;19931;-61